Time;durP1;ratioP1;P1;durP2;ratioP2;P2;SDS_P1;SDS_P2;PMS_P1;PMS_P2;Temp;Humidity;BMP_temperature;BMP_pressure;BME280_temperature;BME280_humidity;BME280_pressure;Samples;Min_cycle;Max_cycle;Signal;HPM_P1;HPM_P2
2021/12/02 00:01:00;;;;;;;;;7.00;5.00;;;;;;;;5001079;28;45500;-76
2021/12/02 00:03:26;;;;;;;;;3.00;2.75;;;;;;;;5018557;28;45246;-75
2021/12/02 00:05:51;;;;;;;;;5.50;3.25;;;;;;;;5013836;28;45508;-75
2021/12/02 00:08:17;;;;;;;;;3.75;3.00;;;;;;;;5017682;28;46198;-74
2021/12/02 00:10:42;;;;;;;;;5.75;2.00;;;;;;;;5024885;28;45566;-75
2021/12/02 00:13:08;;;;;;;;;3.00;3.00;;;;;;;;5010053;28;44749;-76
2021/12/02 00:15:57;;;;;;;;;3.00;3.00;;;;;;;;5010433;28;44951;-75
2021/12/02 00:21:05;;;;;;;;;4.00;4.00;;;;;;;;5023001;28;45324;-75
2021/12/02 00:23:37;;;;;;;;;7.25;5.50;;;;;;;;5015352;28;45497;-75
2021/12/02 00:26:11;;;;;;;;;10.00;5.00;;;;;;;;5015010;28;45406;-75
2021/12/02 00:28:37;;;;;;;;;4.25;4.25;;;;;;;;5024211;28;45451;-77
2021/12/02 00:31:02;;;;;;;;;3.75;3.75;;;;;;;;5036376;28;45549;-75
2021/12/02 00:33:29;;;;;;;;;4.00;2.50;;;;;;;;5035774;28;45521;-75
2021/12/02 00:35:54;;;;;;;;;9.00;3.25;;;;;;;;5035772;28;45469;-75
2021/12/02 00:38:21;;;;;;;;;6.50;5.75;;;;;;;;5035685;28;45443;-75
2021/12/02 00:40:46;;;;;;;;;7.00;4.75;;;;;;;;5035791;28;45320;-76
2021/12/02 00:43:12;;;;;;;;;8.50;7.00;;;;;;;;5034101;28;45510;-76
2021/12/02 00:45:39;;;;;;;;;5.00;5.00;;;;;;;;5036530;28;45443;-75
2021/12/02 00:48:06;;;;;;;;;5.25;4.00;;;;;;;;5035993;28;45311;-76
2021/12/02 00:50:32;;;;;;;;;7.00;6.25;;;;;;;;5035531;28;45649;-76
2021/12/02 00:52:57;;;;;;;;;12.00;6.50;;;;;;;;5036183;28;46438;-76
2021/12/02 00:55:24;;;;;;;;;8.00;6.75;;;;;;;;5036446;28;45573;-76
2021/12/02 00:57:49;;;;;;;;;3.50;3.50;;;;;;;;5036956;28;46070;-76
2021/12/02 01:00:15;;;;;;;;;5.00;4.00;;;;;;;;5037059;28;45418;-76
2021/12/02 01:02:42;;;;;;;;;5.00;4.00;;;;;;;;5038256;28;45439;-76
2021/12/02 01:05:07;;;;;;;;;4.50;4.25;;;;;;;;5039037;28;45539;-76
2021/12/02 01:07:33;;;;;;;;;4.50;4.00;;;;;;;;5039862;28;46928;-74
2021/12/02 01:09:59;;;;;;;;;5.50;5.50;;;;;;;;5039378;28;45304;-75
2021/12/02 01:12:25;;;;;;;;;5.00;5.00;;;;;;;;5038224;28;45337;-75
2021/12/02 01:14:50;;;;;;;;;9.25;6.00;;;;;;;;5039026;28;45376;-75
2021/12/02 01:17:15;;;;;;;;;9.25;9.25;;;;;;;;5039605;28;46307;-75
2021/12/02 01:19:40;;;;;;;;;5.75;4.50;;;;;;;;5039278;28;45391;-75
2021/12/02 01:22:07;;;;;;;;;5.00;5.00;;;;;;;;5038198;28;45488;-76
2021/12/02 01:24:33;;;;;;;;;5.75;5.75;;;;;;;;5038461;28;45329;-75
2021/12/02 01:27:01;;;;;;;;;7.00;6.00;;;;;;;;5037211;28;46406;-75
2021/12/02 01:29:27;;;;;;;;;6.75;3.75;;;;;;;;5038193;28;45400;-76
2021/12/02 01:31:55;;;;;;;;;8.00;6.75;;;;;;;;5038905;28;45490;-76
2021/12/02 01:34:22;;;;;;;;;9.00;5.00;;;;;;;;5038477;28;45502;-75
2021/12/02 01:36:49;;;;;;;;;8.75;5.25;;;;;;;;5039373;28;45535;-76
2021/12/02 01:39:15;;;;;;;;;11.00;8.50;;;;;;;;5039354;28;45378;-76
2021/12/02 01:41:45;;;;;;;;;8.75;6.00;;;;;;;;5038961;28;45439;-76
2021/12/02 01:44:12;;;;;;;;;5.25;5.00;;;;;;;;5038280;28;45557;-76
2021/12/02 01:46:38;;;;;;;;;5.75;4.75;;;;;;;;5038470;28;46220;-76
2021/12/02 01:49:04;;;;;;;;;5.50;5.50;;;;;;;;5038651;28;45471;-75
2021/12/02 01:51:31;;;;;;;;;8.50;6.25;;;;;;;;5039299;28;45386;-75
2021/12/02 01:54:05;;;;;;;;;5.00;5.00;;;;;;;;5039394;28;45442;-75
2021/12/02 01:56:31;;;;;;;;;6.00;5.25;;;;;;;;5037988;28;46329;-75
2021/12/02 01:59:03;;;;;;;;;9.00;6.75;;;;;;;;5037673;28;45392;-75
2021/12/02 02:01:29;;;;;;;;;5.25;5.25;;;;;;;;5038045;28;45415;-75
2021/12/02 02:03:54;;;;;;;;;4.50;4.00;;;;;;;;5038021;28;45309;-75
2021/12/02 02:06:30;;;;;;;;;5.75;5.75;;;;;;;;5038168;28;46107;-74
2021/12/02 02:08:57;;;;;;;;;5.75;5.75;;;;;;;;5037817;28;45324;-74
2021/12/02 02:11:29;;;;;;;;;5.00;3.75;;;;;;;;5037039;28;45458;-76
2021/12/02 02:13:55;;;;;;;;;5.00;5.00;;;;;;;;5037346;28;45375;-77
2021/12/02 02:16:20;;;;;;;;;10.25;5.75;;;;;;;;5037542;28;45555;-77
2021/12/02 02:18:46;;;;;;;;;6.25;6.00;;;;;;;;5038838;28;45278;-77
2021/12/02 02:21:14;;;;;;;;;6.00;6.00;;;;;;;;5039430;28;45434;-76
2021/12/02 02:23:46;;;;;;;;;6.50;5.00;;;;;;;;5039057;28;45637;-76
2021/12/02 02:26:11;;;;;;;;;4.75;4.75;;;;;;;;5037218;28;47231;-77
2021/12/02 02:28:37;;;;;;;;;6.50;6.00;;;;;;;;5037866;28;45616;-77
2021/12/02 02:31:02;;;;;;;;;4.50;4.50;;;;;;;;5037642;28;45561;-75
2021/12/02 02:33:36;;;;;;;;;6.75;5.00;;;;;;;;5038447;28;45282;-74
2021/12/02 02:36:03;;;;;;;;;4.00;4.00;;;;;;;;5037935;28;46185;-74
2021/12/02 02:38:28;;;;;;;;;5.00;4.00;;;;;;;;5036236;28;45287;-75
2021/12/02 02:40:56;;;;;;;;;5.00;5.00;;;;;;;;5038183;28;45236;-75
2021/12/02 02:43:22;;;;;;;;;7.25;7.25;;;;;;;;5038451;28;45521;-74
2021/12/02 02:45:48;;;;;;;;;5.00;5.00;;;;;;;;5037945;28;46056;-77
2021/12/02 02:48:13;;;;;;;;;4.75;4.75;;;;;;;;5038292;28;45379;-74
2021/12/02 02:50:38;;;;;;;;;4.75;4.75;;;;;;;;5036123;28;45515;-75
2021/12/02 02:53:03;;;;;;;;;5.00;4.75;;;;;;;;5039176;28;45426;-75
2021/12/02 02:55:29;;;;;;;;;4.50;3.50;;;;;;;;5038190;28;46455;-74
2021/12/02 03:00:35;;;;;;;;;4.00;4.00;;;;;;;;5037975;28;45497;-75
2021/12/02 03:05:34;;;;;;;;;4.25;3.75;;;;;;;;5036181;28;45596;-75
2021/12/02 03:08:11;;;;;;;;;4.50;3.50;;;;;;;;5036857;28;45374;-75
2021/12/02 03:18:23;;;;;;;;;5.50;3.00;;;;;;;;5036095;28;45481;-75
2021/12/02 03:20:48;;;;;;;;;2.75;2.75;;;;;;;;5036651;28;45391;-75
2021/12/02 03:23:13;;;;;;;;;3.00;2.00;;;;;;;;5036240;28;45431;-75
2021/12/02 03:25:39;;;;;;;;;1.75;1.75;;;;;;;;5036198;28;46211;-74
2021/12/02 03:28:04;;;;;;;;;6.00;6.00;;;;;;;;5036275;28;45382;-75
2021/12/02 03:30:30;;;;;;;;;1.50;1.50;;;;;;;;5037287;28;45356;-75
2021/12/02 03:32:55;;;;;;;;;1.50;1.00;;;;;;;;5036685;28;45501;-76
2021/12/02 03:35:20;;;;;;;;;1.00;1.00;;;;;;;;5036900;28;46043;-75
2021/12/02 03:37:45;;;;;;;;;2.75;0.50;;;;;;;;5036295;28;45319;-75
2021/12/02 03:40:12;;;;;;;;;1.75;1.75;;;;;;;;5035205;28;45578;-75
2021/12/02 03:42:42;;;;;;;;;2.00;1.25;;;;;;;;5035017;28;45289;-75
2021/12/02 03:45:08;;;;;;;;;3.75;1.50;;;;;;;;5034535;28;46254;-75
2021/12/02 03:47:33;;;;;;;;;1.50;1.50;;;;;;;;5034507;28;45374;-75
2021/12/02 03:49:59;;;;;;;;;3.00;0.25;;;;;;;;5034170;28;45488;-75
2021/12/02 03:52:24;;;;;;;;;2.00;0.50;;;;;;;;5034433;28;45445;-75
2021/12/02 03:54:49;;;;;;;;;4.50;1.75;;;;;;;;5034260;28;46199;-74
2021/12/02 03:57:14;;;;;;;;;1.00;1.00;;;;;;;;5034532;28;45517;-77
2021/12/02 03:59:39;;;;;;;;;0.25;0.25;;;;;;;;5034405;28;45566;-75
2021/12/02 04:02:06;;;;;;;;;4.00;1.00;;;;;;;;5034333;28;45411;-76
2021/12/02 04:04:31;;;;;;;;;1.00;1.00;;;;;;;;5034755;28;46377;-75
2021/12/02 04:06:56;;;;;;;;;1.50;0.25;;;;;;;;5033789;28;45497;-75
2021/12/02 04:09:24;;;;;;;;;0.00;0.00;;;;;;;;5035665;28;45403;-77
2021/12/02 04:12:00;;;;;;;;;0.50;0.50;;;;;;;;5034103;28;45302;-77
2021/12/02 04:17:02;;;;;;;;;0.00;0.00;;;;;;;;5034238;28;45556;-75
2021/12/02 04:19:28;;;;;;;;;0.00;0.00;;;;;;;;5034221;28;45333;-77
2021/12/02 04:21:54;;;;;;;;;0.00;0.00;;;;;;;;5034405;28;45383;-77
2021/12/02 04:24:20;;;;;;;;;0.50;0.50;;;;;;;;5032834;28;46181;-76
2021/12/02 04:26:45;;;;;;;;;2.00;0.25;;;;;;;;5033688;28;45456;-76
2021/12/02 04:29:11;;;;;;;;;1.00;1.00;;;;;;;;5034165;28;45256;-77
2021/12/02 04:31:36;;;;;;;;;1.50;1.00;;;;;;;;5033958;28;45495;-76
2021/12/02 04:34:02;;;;;;;;;0.00;0.00;;;;;;;;5033764;28;45399;-78
2021/12/02 04:36:27;;;;;;;;;0.00;0.00;;;;;;;;5036890;28;45265;-77
2021/12/02 04:38:52;;;;;;;;;2.00;0.00;;;;;;;;5037566;28;45388;-77
2021/12/02 04:41:18;;;;;;;;;0.00;0.00;;;;;;;;5036997;28;45432;-76
2021/12/02 04:43:43;;;;;;;;;3.50;1.25;;;;;;;;5036829;28;46977;-77
2021/12/02 04:46:08;;;;;;;;;2.25;0.00;;;;;;;;5037516;28;45628;-75
2021/12/02 04:48:34;;;;;;;;;1.00;1.00;;;;;;;;5036826;28;45318;-75
2021/12/02 04:50:59;;;;;;;;;4.00;2.25;;;;;;;;5037128;28;45250;-77
2021/12/02 04:53:24;;;;;;;;;1.00;1.00;;;;;;;;5036997;28;45507;-77
2021/12/02 04:55:49;;;;;;;;;3.00;3.00;;;;;;;;5036685;28;45344;-77
2021/12/02 04:58:15;;;;;;;;;1.75;1.75;;;;;;;;5037096;28;45375;-75
2021/12/02 05:00:40;;;;;;;;;1.25;1.25;;;;;;;;5036974;28;45553;-77
2021/12/02 05:03:05;;;;;;;;;2.00;2.00;;;;;;;;5037042;28;46307;-77
2021/12/02 05:05:32;;;;;;;;;1.00;1.00;;;;;;;;5036969;28;45565;-76
2021/12/02 05:07:59;;;;;;;;;4.00;1.00;;;;;;;;5036689;28;45422;-76
2021/12/02 05:10:25;;;;;;;;;1.00;1.00;;;;;;;;5036360;28;45352;-77
2021/12/02 05:12:50;;;;;;;;;8.00;3.00;;;;;;;;5036419;28;45976;-77
2021/12/02 05:15:15;;;;;;;;;1.25;1.00;;;;;;;;5037468;28;45419;-76
2021/12/02 05:17:40;;;;;;;;;3.25;3.25;;;;;;;;5036817;28;45404;-77
2021/12/02 05:20:06;;;;;;;;;4.00;2.00;;;;;;;;5036037;28;45526;-77
2021/12/02 05:22:32;;;;;;;;;3.00;2.00;;;;;;;;5035786;28;47599;-77
2021/12/02 05:24:57;;;;;;;;;5.75;5.00;;;;;;;;5036063;28;45397;-76
2021/12/02 05:27:22;;;;;;;;;2.75;2.75;;;;;;;;5037163;28;45298;-76
2021/12/02 05:29:47;;;;;;;;;1.25;1.25;;;;;;;;5036183;28;45256;-76
2021/12/02 05:32:13;;;;;;;;;5.00;2.25;;;;;;;;5035626;28;45407;-76
2021/12/02 05:34:38;;;;;;;;;7.00;3.00;;;;;;;;5035458;28;45379;-76
2021/12/02 05:37:04;;;;;;;;;12.50;10.00;;;;;;;;5035617;28;45434;-77
2021/12/02 05:39:29;;;;;;;;;8.50;6.25;;;;;;;;5036437;28;45404;-76
2021/12/02 05:41:54;;;;;;;;;1.50;1.50;;;;;;;;5035703;28;45497;-76
2021/12/02 05:44:21;;;;;;;;;6.00;4.50;;;;;;;;5036012;28;45530;-77
2021/12/02 05:46:46;;;;;;;;;4.00;3.50;;;;;;;;5035073;28;45507;-76
2021/12/02 05:49:11;;;;;;;;;4.00;4.00;;;;;;;;5035842;28;45325;-78
2021/12/02 05:51:36;;;;;;;;;3.00;2.00;;;;;;;;5034598;28;47933;-77
2021/12/02 05:54:02;;;;;;;;;5.75;5.00;;;;;;;;5035133;28;45337;-77
2021/12/02 05:56:27;;;;;;;;;5.00;2.50;;;;;;;;5035287;28;45410;-76
2021/12/02 05:58:52;;;;;;;;;15.75;14.00;;;;;;;;5035199;28;45393;-76
2021/12/02 06:01:17;;;;;;;;;2.00;2.00;;;;;;;;5035345;28;45586;-76
2021/12/02 06:03:43;;;;;;;;;5.25;3.00;;;;;;;;5035841;28;45289;-77
2021/12/02 06:06:08;;;;;;;;;7.75;3.75;;;;;;;;5035873;28;45333;-76
2021/12/02 06:08:33;;;;;;;;;9.25;6.50;;;;;;;;5035184;28;45491;-77
2021/12/02 06:10:58;;;;;;;;;9.75;8.00;;;;;;;;5035085;28;46319;-77
2021/12/02 06:13:27;;;;;;;;;9.00;7.50;;;;;;;;5035573;28;45458;-76
2021/12/02 06:15:52;;;;;;;;;6.75;6.50;;;;;;;;5035581;28;45411;-77
2021/12/02 06:18:18;;;;;;;;;7.50;5.25;;;;;;;;5036094;28;45188;-77
2021/12/02 06:20:43;;;;;;;;;10.00;10.00;;;;;;;;5034827;28;47213;-77
2021/12/02 06:23:08;;;;;;;;;8.50;6.50;;;;;;;;5034349;28;45769;-78
2021/12/02 06:27:59;;;;;;;;;7.25;5.50;;;;;;;;5034972;28;45499;-78
2021/12/02 06:30:25;;;;;;;;;13.25;11.25;;;;;;;;5035441;28;47212;-78
2021/12/02 06:32:50;;;;;;;;;9.50;8.25;;;;;;;;5034760;28;45304;-77
2021/12/02 06:35:16;;;;;;;;;9.00;7.25;;;;;;;;5034487;28;45501;-77
2021/12/02 06:37:41;;;;;;;;;5.00;3.75;;;;;;;;5034116;28;45410;-76
2021/12/02 06:40:08;;;;;;;;;14.00;9.00;;;;;;;;5034280;28;47153;-77
2021/12/02 06:42:33;;;;;;;;;5.25;4.00;;;;;;;;5034551;28;45487;-77
2021/12/02 06:44:58;;;;;;;;;8.00;7.00;;;;;;;;5034061;28;45604;-78
2021/12/02 06:47:29;;;;;;;;;7.00;7.00;;;;;;;;5035372;28;45387;-79
2021/12/02 06:49:56;;;;;;;;;3.75;3.75;;;;;;;;5035867;28;45545;-76
2021/12/02 06:52:23;;;;;;;;;8.25;8.25;;;;;;;;5033587;28;45244;-77
2021/12/02 06:54:48;;;;;;;;;6.50;6.25;;;;;;;;5033676;28;45344;-77
2021/12/02 06:57:15;;;;;;;;;8.00;7.00;;;;;;;;5034605;28;45510;-77
2021/12/02 06:59:41;;;;;;;;;7.75;6.50;;;;;;;;5032204;28;46645;-77
2021/12/02 07:02:07;;;;;;;;;9.50;9.50;;;;;;;;5033812;28;45288;-76
2021/12/02 07:04:32;;;;;;;;;5.25;3.50;;;;;;;;5034181;28;45357;-78
2021/12/02 07:06:57;;;;;;;;;8.00;8.00;;;;;;;;5033352;28;45227;-80
2021/12/02 07:09:23;;;;;;;;;4.25;4.25;;;;;;;;5034377;28;46234;-79
2021/12/02 07:11:48;;;;;;;;;5.50;5.25;;;;;;;;5033929;28;45205;-78
2021/12/02 07:14:16;;;;;;;;;5.50;4.75;;;;;;;;5033689;28;45167;-76
2021/12/02 07:16:41;;;;;;;;;12.50;9.00;;;;;;;;5033385;28;45474;-76
2021/12/02 07:19:08;;;;;;;;;4.00;3.25;;;;;;;;5033504;28;45334;-77
2021/12/02 07:21:36;;;;;;;;;3.50;3.25;;;;;;;;5033313;28;45540;-77
2021/12/02 07:24:02;;;;;;;;;6.00;1.75;;;;;;;;5033349;28;45280;-77
2021/12/02 07:26:27;;;;;;;;;4.00;4.00;;;;;;;;5033189;28;45402;-77
2021/12/02 07:28:52;;;;;;;;;5.25;4.50;;;;;;;;5032769;28;45382;-77
2021/12/02 07:31:19;;;;;;;;;5.00;3.00;;;;;;;;5033375;28;45546;-77
2021/12/02 07:33:48;;;;;;;;;8.25;3.75;;;;;;;;5033593;28;45184;-78
2021/12/02 07:36:14;;;;;;;;;3.25;3.25;;;;;;;;5032666;28;45468;-77
2021/12/02 07:38:39;;;;;;;;;6.75;4.75;;;;;;;;5033221;28;45430;-77
2021/12/02 07:41:05;;;;;;;;;13.75;9.25;;;;;;;;5033332;28;45482;-78
2021/12/02 07:43:35;;;;;;;;;8.00;6.00;;;;;;;;5033321;28;45354;-77
2021/12/02 07:46:01;;;;;;;;;3.00;2.00;;;;;;;;5033748;28;45976;-77
2021/12/02 07:48:26;;;;;;;;;9.75;4.00;;;;;;;;5032915;28;47078;-77
2021/12/02 07:50:54;;;;;;;;;7.00;5.00;;;;;;;;5032960;28;45353;-77
2021/12/02 07:53:19;;;;;;;;;5.25;4.00;;;;;;;;5032597;28;45473;-77
2021/12/02 07:55:44;;;;;;;;;11.50;11.25;;;;;;;;5032522;28;45439;-78
2021/12/02 07:58:10;;;;;;;;;8.50;6.50;;;;;;;;5033058;28;46230;-78
2021/12/02 08:00:35;;;;;;;;;9.75;9.75;;;;;;;;5029790;28;45510;-76
2021/12/02 08:03:01;;;;;;;;;15.75;12.25;;;;;;;;5032934;28;45462;-77
2021/12/02 08:05:27;;;;;;;;;7.25;7.00;;;;;;;;5032775;28;45662;-76
2021/12/02 08:07:53;;;;;;;;;7.75;7.00;;;;;;;;5032472;28;46048;-76
2021/12/02 08:10:18;;;;;;;;;2.00;2.00;;;;;;;;5032819;28;45320;-78
2021/12/02 08:12:48;;;;;;;;;4.00;2.75;;;;;;;;5033037;28;45407;-77
2021/12/02 08:15:15;;;;;;;;;4.00;4.00;;;;;;;;5032907;28;46049;-79
2021/12/02 08:17:40;;;;;;;;;5.50;4.00;;;;;;;;5032420;28;46882;-78
2021/12/02 08:20:06;;;;;;;;;6.00;4.00;;;;;;;;5031866;28;45442;-77
2021/12/02 08:22:32;;;;;;;;;4.00;4.00;;;;;;;;5032261;28;45391;-77
2021/12/02 08:24:57;;;;;;;;;5.50;4.00;;;;;;;;5032578;28;45569;-78
2021/12/02 08:27:22;;;;;;;;;3.00;3.00;;;;;;;;5033740;28;45400;-77
2021/12/02 08:29:48;;;;;;;;;3.50;2.25;;;;;;;;5032444;28;45385;-77
2021/12/02 08:32:13;;;;;;;;;4.50;4.50;;;;;;;;5032467;28;45454;-77
2021/12/02 08:34:39;;;;;;;;;4.25;3.00;;;;;;;;5032814;28;45454;-77
2021/12/02 08:37:05;;;;;;;;;9.00;7.25;;;;;;;;5032340;28;46956;-77
2021/12/02 08:39:31;;;;;;;;;6.25;5.25;;;;;;;;5033420;28;45227;-77
2021/12/02 08:41:57;;;;;;;;;11.00;8.75;;;;;;;;5032644;28;45558;-78
2021/12/02 08:44:24;;;;;;;;;7.25;5.00;;;;;;;;5031765;28;45795;-77
2021/12/02 08:46:51;;;;;;;;;9.25;4.75;;;;;;;;5032093;28;46342;-76
2021/12/02 08:49:17;;;;;;;;;3.50;3.00;;;;;;;;5032080;28;45425;-76
2021/12/02 08:51:42;;;;;;;;;2.25;2.00;;;;;;;;5031783;28;45338;-78
2021/12/02 08:54:08;;;;;;;;;4.00;4.00;;;;;;;;5031327;28;45458;-78
2021/12/02 08:56:34;;;;;;;;;6.25;3.00;;;;;;;;5031506;28;45994;-77
2021/12/02 08:58:59;;;;;;;;;7.00;4.50;;;;;;;;5031469;28;45451;-76
2021/12/02 09:01:27;;;;;;;;;6.00;3.00;;;;;;;;5031294;28;45366;-77
2021/12/02 09:03:52;;;;;;;;;6.75;4.25;;;;;;;;5032406;28;45244;-79
2021/12/02 09:06:21;;;;;;;;;8.25;5.50;;;;;;;;5032549;28;45773;-78
2021/12/02 09:08:47;;;;;;;;;10.50;7.25;;;;;;;;5032264;28;45434;-78
2021/12/02 09:11:12;;;;;;;;;3.25;3.25;;;;;;;;5031863;28;45300;-76
2021/12/02 09:13:38;;;;;;;;;3.50;3.50;;;;;;;;5031913;28;45461;-75
2021/12/02 09:16:04;;;;;;;;;3.25;3.00;;;;;;;;5031131;28;45912;-77
2021/12/02 09:18:29;;;;;;;;;5.00;3.00;;;;;;;;5032098;28;45253;-78
2021/12/02 09:20:54;;;;;;;;;2.75;2.25;;;;;;;;5031998;28;45267;-77
2021/12/02 09:23:20;;;;;;;;;4.50;3.50;;;;;;;;5033773;28;45419;-75
2021/12/02 09:25:45;;;;;;;;;4.00;3.00;;;;;;;;5034936;28;45526;-78
2021/12/02 09:28:10;;;;;;;;;4.00;4.00;;;;;;;;5035536;28;46044;-78
2021/12/02 09:30:36;;;;;;;;;3.00;3.00;;;;;;;;5035138;28;45357;-78
2021/12/02 09:33:01;;;;;;;;;5.25;4.00;;;;;;;;5035250;28;45588;-78
2021/12/02 09:35:26;;;;;;;;;4.00;2.75;;;;;;;;5035226;28;46428;-77
2021/12/02 09:37:52;;;;;;;;;7.00;4.00;;;;;;;;5035107;28;45556;-79
2021/12/02 09:40:18;;;;;;;;;5.00;4.00;;;;;;;;5035079;28;45616;-79
2021/12/02 09:42:43;;;;;;;;;4.25;3.75;;;;;;;;5035770;28;46384;-78
2021/12/02 09:45:09;;;;;;;;;6.00;2.50;;;;;;;;5034976;28;45433;-79
2021/12/02 09:47:37;;;;;;;;;11.25;4.25;;;;;;;;5034841;28;45491;-78
2021/12/02 09:50:07;;;;;;;;;3.75;2.25;;;;;;;;5034614;28;45453;-77
2021/12/02 09:52:38;;;;;;;;;12.00;8.25;;;;;;;;5034608;28;45163;-77
2021/12/02 09:55:19;;;;;;;;;5.75;2.00;;;;;;;;5034554;28;46295;-78
2021/12/02 09:57:48;;;;;;;;;5.00;5.00;;;;;;;;5031578;28;45498;-78
2021/12/02 10:00:20;;;;;;;;;6.75;6.00;;;;;;;;5033024;28;45491;-78
2021/12/02 10:05:54;;;;;;;;;3.50;3.50;;;;;;;;4992991;28;45929;-78
2021/12/02 10:08:24;;;;;;;;;3.50;2.50;;;;;;;;4987469;28;45476;-78
2021/12/02 10:10:57;;;;;;;;;11.75;8.00;;;;;;;;4981106;28;45338;-78
2021/12/02 10:13:30;;;;;;;;;2.00;2.00;;;;;;;;4978642;28;45794;-78
2021/12/02 10:16:06;;;;;;;;;3.50;3.00;;;;;;;;4977505;28;47081;-78
2021/12/02 10:18:34;;;;;;;;;5.00;2.00;;;;;;;;4993304;28;45653;-78
2021/12/02 10:21:15;;;;;;;;;7.00;3.00;;;;;;;;4992777;28;45508;-77
2021/12/02 10:23:46;;;;;;;;;8.25;5.00;;;;;;;;4985483;28;45437;-78
2021/12/02 10:26:11;;;;;;;;;7.50;3.50;;;;;;;;4981570;28;46086;-78
2021/12/02 10:28:41;;;;;;;;;3.25;3.25;;;;;;;;4980668;28;45515;-79
2021/12/02 10:31:06;;;;;;;;;6.50;6.50;;;;;;;;4976643;28;45527;-77
2021/12/02 10:33:36;;;;;;;;;3.25;2.50;;;;;;;;4993220;28;45417;-79
2021/12/02 10:36:03;;;;;;;;;2.25;2.25;;;;;;;;4982206;28;45476;-78
2021/12/02 10:38:34;;;;;;;;;5.75;5.75;;;;;;;;4981652;28;45458;-78
2021/12/02 10:41:01;;;;;;;;;2.25;2.25;;;;;;;;4999248;28;45317;-78
2021/12/02 10:43:26;;;;;;;;;8.25;5.75;;;;;;;;5032387;28;45538;-76
2021/12/02 10:45:51;;;;;;;;;3.75;2.75;;;;;;;;5034839;28;46134;-77
2021/12/02 10:48:16;;;;;;;;;1.25;1.00;;;;;;;;5035930;28;45410;-78
2021/12/02 10:50:42;;;;;;;;;3.00;2.25;;;;;;;;5034655;28;45366;-76
2021/12/02 10:53:07;;;;;;;;;2.00;2.00;;;;;;;;5034781;28;45415;-79
2021/12/02 10:55:33;;;;;;;;;5.75;3.50;;;;;;;;5034720;28;46124;-78
2021/12/02 10:58:00;;;;;;;;;1.50;1.00;;;;;;;;5034401;28;45330;-77
2021/12/02 11:00:36;;;;;;;;;2.75;1.00;;;;;;;;5035086;28;45364;-78
2021/12/02 11:03:07;;;;;;;;;7.50;5.00;;;;;;;;5034486;28;45929;-77
2021/12/02 11:05:33;;;;;;;;;1.00;1.00;;;;;;;;5034104;28;46532;-80
2021/12/02 11:08:03;;;;;;;;;4.75;3.75;;;;;;;;5034376;28;45384;-78
2021/12/02 11:10:32;;;;;;;;;7.75;6.00;;;;;;;;5035268;28;45501;-79
2021/12/02 11:12:57;;;;;;;;;5.75;5.25;;;;;;;;5034631;28;45357;-79
2021/12/02 11:15:24;;;;;;;;;6.50;4.50;;;;;;;;5034853;28;45347;-78
2021/12/02 11:17:50;;;;;;;;;4.50;3.00;;;;;;;;5032769;28;45203;-79
2021/12/02 11:20:28;;;;;;;;;3.00;3.00;;;;;;;;5033493;28;45312;-79
2021/12/02 11:22:59;;;;;;;;;2.50;2.50;;;;;;;;5033269;28;45444;-79
2021/12/02 11:25:25;;;;;;;;;2.25;0.00;;;;;;;;5033359;28;45224;-78
2021/12/02 11:27:51;;;;;;;;;2.75;2.75;;;;;;;;5032860;28;45140;-78
2021/12/02 11:30:18;;;;;;;;;2.50;2.50;;;;;;;;5033777;28;45296;-78
2021/12/02 11:32:57;;;;;;;;;2.25;1.25;;;;;;;;5031862;28;45517;-77
2021/12/02 11:35:34;;;;;;;;;1.00;1.00;;;;;;;;5033043;28;47030;-78
2021/12/02 11:38:18;;;;;;;;;1.00;1.00;;;;;;;;5033816;28;45340;-77
2021/12/02 11:40:44;;;;;;;;;5.75;4.75;;;;;;;;5033929;28;45370;-79
2021/12/02 11:43:11;;;;;;;;;1.75;1.00;;;;;;;;5018255;28;45354;-78
2021/12/02 11:45:43;;;;;;;;;1.00;1.00;;;;;;;;5029283;28;45362;-78
2021/12/02 11:48:09;;;;;;;;;3.00;3.00;;;;;;;;5033136;28;45496;-78
2021/12/02 11:50:34;;;;;;;;;3.00;1.00;;;;;;;;5032880;28;45407;-78
2021/12/02 11:52:59;;;;;;;;;2.00;1.00;;;;;;;;5033389;28;45393;-79
2021/12/02 11:55:33;;;;;;;;;1.25;1.25;;;;;;;;5033055;28;45354;-79
2021/12/02 11:57:59;;;;;;;;;3.00;1.75;;;;;;;;5033520;28;45528;-78
2021/12/02 12:00:26;;;;;;;;;8.25;7.00;;;;;;;;5033832;28;45241;-79
2021/12/02 12:02:59;;;;;;;;;2.00;1.00;;;;;;;;5033664;28;45448;-78
2021/12/02 12:05:35;;;;;;;;;0.25;0.25;;;;;;;;5032776;28;45258;-79
2021/12/02 12:08:01;;;;;;;;;5.50;4.00;;;;;;;;5032228;28;45410;-78
2021/12/02 12:10:30;;;;;;;;;2.50;2.50;;;;;;;;5032521;28;45230;-79
2021/12/02 12:13:27;;;;;;;;;0.00;0.00;;;;;;;;5033796;28;45301;-78
2021/12/02 12:15:54;;;;;;;;;0.50;0.50;;;;;;;;5008797;28;46090;-78
2021/12/02 12:18:20;;;;;;;;;3.50;1.00;;;;;;;;5011752;28;45436;-76
2021/12/02 12:20:49;;;;;;;;;1.75;1.75;;;;;;;;5012456;28;45496;-80
2021/12/02 12:23:35;;;;;;;;;2.00;2.00;;;;;;;;5010995;28;45506;-77
2021/12/02 12:26:11;;;;;;;;;3.00;2.00;;;;;;;;5009894;28;46129;-79
2021/12/02 12:28:55;;;;;;;;;7.00;4.25;;;;;;;;5011498;28;45416;-78
2021/12/02 12:31:21;;;;;;;;;1.25;1.00;;;;;;;;5011102;28;45468;-79
2021/12/02 12:33:46;;;;;;;;;1.25;0.50;;;;;;;;5013352;28;45501;-78
2021/12/02 12:36:31;;;;;;;;;1.00;1.00;;;;;;;;5011945;28;45520;-77
2021/12/02 12:39:15;;;;;;;;;3.25;2.00;;;;;;;;5011072;28;45392;-77
2021/12/02 12:41:41;;;;;;;;;1.75;0.75;;;;;;;;5017161;28;45496;-79
2021/12/02 12:44:06;;;;;;;;;2.00;2.00;;;;;;;;5010596;28;45315;-77
2021/12/02 12:46:31;;;;;;;;;19.50;17.25;;;;;;;;5010623;28;46048;-78
2021/12/02 12:49:13;;;;;;;;;3.00;1.00;;;;;;;;5011147;28;45595;-79
2021/12/02 12:51:47;;;;;;;;;0.67;0.67;;;;;;;;5012932;28;45411;-79
2021/12/02 12:54:19;;;;;;;;;1.00;1.00;;;;;;;;5033020;28;45260;-80
2021/12/02 12:56:46;;;;;;;;;1.50;0.25;;;;;;;;5034467;28;46624;-79
2021/12/02 12:59:12;;;;;;;;;3.33;3.00;;;;;;;;5036528;28;45480;-79
2021/12/02 13:01:39;;;;;;;;;1.00;1.00;;;;;;;;5036879;28;45870;-78
2021/12/02 13:04:15;;;;;;;;;3.00;3.00;;;;;;;;5037346;28;45566;-79
2021/12/02 13:06:49;;;;;;;;;0.00;0.00;;;;;;;;5034149;28;46228;-78
2021/12/02 13:09:34;;;;;;;;;1.00;0.00;;;;;;;;5038285;28;45549;-80
2021/12/02 13:11:59;;;;;;;;;0.00;0.00;;;;;;;;5038581;28;45453;-80
2021/12/02 13:14:25;;;;;;;;;2.25;0.75;;;;;;;;5037456;28;45530;-78
2021/12/02 13:16:50;;;;;;;;;0.00;0.00;;;;;;;;5043407;28;46271;-79
2021/12/02 13:19:15;;;;;;;;;0.50;0.50;;;;;;;;5044359;28;45541;-78
2021/12/02 13:21:41;;;;;;;;;0.75;0.75;;;;;;;;5046300;28;45319;-80
2021/12/02 13:24:06;;;;;;;;;1.75;1.00;;;;;;;;5043840;28;45490;-79
2021/12/02 13:26:33;;;;;;;;;2.25;0.75;;;;;;;;5041795;28;47067;-80
2021/12/02 13:29:18;;;;;;;;;0.50;0.50;;;;;;;;5044217;28;45335;-80
2021/12/02 13:31:51;;;;;;;;;1.00;0.00;;;;;;;;5044588;28;45351;-77
2021/12/02 13:34:17;;;;;;;;;0.00;0.00;;;;;;;;5045901;28;45382;-77
2021/12/02 13:36:47;;;;;;;;;1.00;1.00;;;;;;;;5046389;28;45363;-77
2021/12/02 13:39:14;;;;;;;;;4.00;3.00;;;;;;;;5046969;28;44852;-79
2021/12/02 13:41:42;;;;;;;;;2.25;1.50;;;;;;;;5045002;28;45456;-79
2021/12/02 13:44:14;;;;;;;;;0.75;0.50;;;;;;;;5038004;28;47659;-78
2021/12/02 13:46:41;;;;;;;;;1.75;1.75;;;;;;;;5035952;28;46331;-79
2021/12/02 13:49:12;;;;;;;;;1.25;0.00;;;;;;;;5036058;28;45358;-79
2021/12/02 13:54:27;;;;;;;;;4.00;1.75;;;;;;;;5036472;28;45447;-78
2021/12/02 13:56:54;;;;;;;;;4.25;1.25;;;;;;;;5036346;28;47097;-78
2021/12/02 13:59:23;;;;;;;;;1.00;1.00;;;;;;;;5036569;28;45436;-80
2021/12/02 14:01:56;;;;;;;;;4.50;3.50;;;;;;;;5035575;28;45385;-78
2021/12/02 14:04:22;;;;;;;;;3.00;3.00;;;;;;;;5035837;28;45646;-79
2021/12/02 14:06:47;;;;;;;;;2.50;2.50;;;;;;;;5035658;28;46473;-77
2021/12/02 14:09:17;;;;;;;;;1.75;0.00;;;;;;;;5035006;28;45373;-78
2021/12/02 14:11:42;;;;;;;;;3.00;1.75;;;;;;;;5037835;28;45502;-78
2021/12/02 14:14:14;;;;;;;;;5.00;2.25;;;;;;;;5036154;28;45292;-78
2021/12/02 14:16:39;;;;;;;;;3.25;2.00;;;;;;;;5033743;28;46477;-78
2021/12/02 14:19:09;;;;;;;;;1.25;1.00;;;;;;;;5035291;28;45355;-78
2021/12/02 14:21:34;;;;;;;;;1.75;0.75;;;;;;;;5036043;28;45360;-80
2021/12/02 14:23:59;;;;;;;;;1.00;1.00;;;;;;;;5035182;28;45220;-79
2021/12/02 14:26:27;;;;;;;;;0.00;0.00;;;;;;;;5034869;28;46044;-78
2021/12/02 14:28:54;;;;;;;;;4.75;4.50;;;;;;;;5034951;28;45372;-77
2021/12/02 14:31:22;;;;;;;;;3.75;2.75;;;;;;;;5035432;28;45636;-78
2021/12/02 14:33:48;;;;;;;;;3.00;1.00;;;;;;;;5034831;28;45468;-78
2021/12/02 14:36:15;;;;;;;;;2.00;2.00;;;;;;;;5033730;28;45482;-78
2021/12/02 14:38:42;;;;;;;;;7.50;4.00;;;;;;;;5034395;28;45508;-78
2021/12/02 14:41:10;;;;;;;;;1.75;1.75;;;;;;;;5034462;28;45472;-78
2021/12/02 14:43:36;;;;;;;;;1.75;1.75;;;;;;;;5035308;28;45317;-78
2021/12/02 14:46:19;;;;;;;;;2.00;2.00;;;;;;;;5035012;28;46084;-78
2021/12/02 14:48:46;;;;;;;;;1.75;1.50;;;;;;;;5032300;28;45331;-79
2021/12/02 14:51:15;;;;;;;;;3.00;3.00;;;;;;;;5034848;28;45460;-77
2021/12/02 14:53:45;;;;;;;;;3.00;2.75;;;;;;;;5034686;28;45255;-78
2021/12/02 14:56:25;;;;;;;;;3.00;3.00;;;;;;;;5035483;28;45511;-78
2021/12/02 14:59:09;;;;;;;;;4.75;2.25;;;;;;;;5033974;28;45196;-78
2021/12/02 15:01:35;;;;;;;;;3.00;1.00;;;;;;;;5034384;28;45205;-77
2021/12/02 15:04:19;;;;;;;;;3.00;2.50;;;;;;;;5034177;28;45594;-77
2021/12/02 15:06:45;;;;;;;;;2.00;2.00;;;;;;;;5031795;28;45316;-79
2021/12/02 15:09:31;;;;;;;;;6.50;2.50;;;;;;;;5034268;28;45455;-78
2021/12/02 15:11:59;;;;;;;;;2.25;2.25;;;;;;;;5033712;28;45345;-78